Port Royal, South Carolina
Current Conditions -  °F | °C
As of 12:55 PM on Thursday 30 Oct 2014 (Local Time) from KARW Reporting Station
Clear Clear  
Wind Chill: 70°   Ceiling: Unl
Heat Index: 70°   Visibility: 7mi
Dew Point: 59°   Wind: 8mph
Humidity: 68%   Direction: 40°NE
Pressure: 29.97"   Gusts: NA
Location:  32.38°N, 80.69°W
Report Text: KARW 301655Z AUTO 04007KT 7SM CLR 21/15 A2997 RMK AO2
Loading
Personal Weather Stations






























Interactive Weather Map
Tropical Storm Tracking
New forecast layout! Learn more

10-Day Weather Forecast

Advertisements
Track Severe Weather on mobile